Time,TemperatureF,DewpointF,PressureIn,WindDirection,WindDirectionDegrees,WindSpeedMPH,WindSpeedGustMPH,Humidity,HourlyPrecipIn,Conditions,Clouds,dailyrainin,SoftwareType,DateUTC
2013-01-24 00:03:00,3.7,-2.6,31.78,North,5,5.4,5.8,74,0.00,,OVC,0.00,VWS V13.01,2013-01-24 06:03:00,
2013-01-24 00:08:00,3.6,-2.8,31.78,NNW,345,7.2,7.2,74,0.00,,OVC,0.00,VWS V13.01,2013-01-24 06:08:00,
2013-01-24 00:13:00,3.6,-2.8,31.78,North,357,3.6,9.2,74,0.00,,OVC,0.00,VWS V13.01,2013-01-24 06:13:00,
2013-01-24 00:18:00,3.4,-2.9,31.78,West,271,2.7,5.4,74,0.00,,OVC,0.00,VWS V13.01,2013-01-24 06:18:00,
2013-01-24 00:23:00,3.2,-3.1,31.78,NW,314,4.0,4.9,74,0.00,,OVC,0.00,VWS V13.01,2013-01-24 06:23:00,
2013-01-24 00:28:00,3.0,-3.3,31.78,NNE,22,5.4,5.4,74,0.00,,OVC,0.00,VWS V13.01,2013-01-24 06:28:00,
2013-01-24 00:33:00,2.8,-3.5,31.81,NW,314,4.9,4.9,74,0.00,,OVC,0.00,VWS V13.01,2013-01-24 06:33:00,
2013-01-24 00:38:00,2.8,-3.5,31.81,NW,313,3.1,3.6,74,0.00,,OVC,0.00,VWS V13.01,2013-01-24 06:38:00,
2013-01-24 00:43:00,2.7,-3.6,31.81,North,0,3.1,3.1,74,0.00,,OVC,0.00,VWS V13.01,2013-01-24 06:43:00,
2013-01-24 00:48:00,2.5,-3.8,31.81,North,353,3.1,4.0,74,0.00,,OVC,0.00,VWS V13.01,2013-01-24 06:48:00,
2013-01-24 00:53:00,2.5,-3.8,31.81,NW,316,2.2,2.2,74,0.00,,OVC,0.00,VWS V13.01,2013-01-24 06:53:00,
2013-01-24 00:58:00,2.3,-4.0,31.81,North,353,4.0,5.4,74,0.00,,OVC,0.00,VWS V13.01,2013-01-24 06:58:00,
2013-01-24 01:03:00,2.1,-4.2,31.81,WNW,292,6.3,6.3,74,0.00,,OVC,0.00,VWS V13.01,2013-01-24 07:03:00,
2013-01-24 01:08:00,2.1,-4.2,31.81,NNW,346,4.0,5.8,74,0.00,,OVC,0.00,VWS V13.01,2013-01-24 07:08:00,
2013-01-24 01:13:00,2.1,-4.2,31.81,North,3,0.0,0.0,74,0.00,,OVC,0.00,VWS V13.01,2013-01-24 07:13:00,
2013-01-24 01:18:00,2.1,-4.2,31.84,NNW,340,4.0,4.0,74,0.00,,OVC,0.00,VWS V13.01,2013-01-24 07:18:00,
2013-01-24 01:23:00,1.9,-4.3,31.84,NNW,328,0.0,0.0,74,0.00,,OVC,0.00,VWS V13.01,2013-01-24 07:23:00,
2013-01-24 01:28:00,1.9,-4.3,31.84,WNW,285,0.0,0.0,74,0.00,,OVC,0.00,VWS V13.01,2013-01-24 07:28:00,
2013-01-24 01:33:00,1.8,-4.5,31.84,WNW,284,5.4,5.4,74,0.00,,OVC,0.00,VWS V13.01,2013-01-24 07:33:00,
2013-01-24 01:38:00,1.8,-4.5,31.84,WNW,292,2.7,2.7,74,0.00,,OVC,0.00,VWS V13.01,2013-01-24 07:38:00,
2013-01-24 01:43:00,1.8,-4.5,31.84,NNW,337,0.0,0.0,74,0.00,,OVC,0.00,VWS V13.01,2013-01-24 07:43:00,
2013-01-24 01:48:00,1.6,-4.7,31.84,NNW,333,2.7,4.0,74,0.00,,OVC,0.00,VWS V13.01,2013-01-24 07:48:00,
2013-01-24 01:53:00,1.6,-4.7,31.84,NW,314,0.0,0.0,74,0.00,,OVC,0.00,VWS V13.01,2013-01-24 07:53:00,
2013-01-24 01:58:00,1.4,-4.8,31.84,NW,305,2.2,2.2,74,0.00,,OVC,0.00,VWS V13.01,2013-01-24 07:58:00,
2013-01-24 02:03:00,1.2,-5.0,31.87,West,276,3.6,3.6,74,0.00,,OVC,0.00,VWS V13.01,2013-01-24 08:03:00,
2013-01-24 02:08:00,1.2,-5.0,31.87,WNW,299,2.7,3.6,74,0.00,,OVC,0.00,VWS V13.01,2013-01-24 08:08:00,
2013-01-24 02:13:00,1.0,-5.2,31.87,NNW,334,3.6,3.6,74,0.00,,OVC,0.00,VWS V13.01,2013-01-24 08:13:00,
2013-01-24 02:18:00,0.9,-5.4,31.84,NW,314,0.0,3.6,74,0.00,,OVC,0.00,VWS V13.01,2013-01-24 08:18:00,
2013-01-24 02:23:00,0.7,-5.6,31.84,NW,319,0.0,2.2,74,0.00,,OVC,0.00,VWS V13.01,2013-01-24 08:23:00,
2013-01-24 02:28:00,0.7,-5.6,31.84,NNW,327,2.7,5.4,74,0.00,,OVC,0.00,VWS V13.01,2013-01-24 08:28:00,
2013-01-24 02:33:00,0.5,-5.7,31.87,NW,314,3.1,3.6,74,0.00,,OVC,0.00,VWS V13.01,2013-01-24 08:33:00,
2013-01-24 02:38:00,0.3,-5.9,31.87,NW,309,0.0,0.0,74,0.00,,OVC,0.00,VWS V13.01,2013-01-24 08:38:00,
2013-01-24 02:43:00,0.3,-5.9,31.87,North,2,6.7,6.7,74,0.00,,OVC,0.00,VWS V13.01,2013-01-24 08:43:00,
2013-01-24 02:48:00,0.3,-5.9,31.87,NW,319,4.9,4.9,74,0.00,,OVC,0.00,VWS V13.01,2013-01-24 08:48:00,
2013-01-24 02:53:00,0.3,-5.9,31.87,NW,319,3.6,3.6,74,0.00,,OVC,0.00,VWS V13.01,2013-01-24 08:53:00,
2013-01-24 02:58:00,0.1,-6.1,31.87,North,353,2.7,2.7,74,0.00,,OVC,0.00,VWS V13.01,2013-01-24 08:58:00,
2013-01-24 03:03:00,0.1,-6.1,31.87,WNW,300,5.4,5.4,74,0.00,,OVC,0.00,VWS V13.01,2013-01-24 09:03:00,
2013-01-24 03:08:00,0.0,-6.2,31.87,NW,325,0.0,2.7,74,0.00,,OVC,0.00,VWS V13.01,2013-01-24 09:08:00,
2013-01-24 03:13:00,0.0,-6.2,31.87,NNW,335,3.1,3.1,74,0.00,,OVC,0.00,VWS V13.01,2013-01-24 09:13:00,
2013-01-24 03:18:00,0.0,-6.2,31.87,NNW,331,4.0,4.0,74,0.00,,OVC,0.00,VWS V13.01,2013-01-24 09:18:00,
2013-01-24 03:23:00,0.0,-6.2,31.87,West,276,3.1,3.1,74,0.00,,OVC,0.00,VWS V13.01,2013-01-24 09:23:00,
2013-01-24 03:28:00,0.0,-6.2,31.87,WNW,302,0.0,4.0,74,0.00,,OVC,0.00,VWS V13.01,2013-01-24 09:28:00,
2013-01-24 03:33:00,-0.2,-6.4,31.90,WNW,292,2.2,4.9,74,0.00,,OVC,0.00,VWS V13.01,2013-01-24 09:33:00,
2013-01-24 03:38:00,-0.2,-6.4,31.90,WNW,301,0.0,2.2,74,0.00,,OVC,0.00,VWS V13.01,2013-01-24 09:38:00,
2013-01-24 03:43:00,-0.2,-6.4,31.90,NW,321,3.6,4.0,74,0.00,,OVC,0.00,VWS V13.01,2013-01-24 09:43:00,
2013-01-24 03:48:00,-0.4,-6.6,31.90,WNW,286,3.6,4.0,74,0.00,,OVC,0.00,VWS V13.01,2013-01-24 09:48:00,
2013-01-24 03:53:00,-0.4,-6.6,31.90,WNW,301,2.2,4.0,74,0.00,,OVC,0.00,VWS V13.01,2013-01-24 09:53:00,
2013-01-24 03:58:00,-0.2,-6.4,31.90,NNW,345,2.7,3.6,74,0.00,,OVC,0.00,VWS V13.01,2013-01-24 09:58:00,
2013-01-24 04:03:00,-0.2,-6.4,31.90,North,353,5.8,5.8,74,0.00,,OVC,0.00,VWS V13.01,2013-01-24 10:03:00,
2013-01-24 04:08:00,-0.4,-6.6,31.90,NNW,327,3.6,3.6,74,0.00,,OVC,0.00,VWS V13.01,2013-01-24 10:08:00,
2013-01-24 04:13:00,-0.4,-6.6,31.90,WNW,296,0.0,4.0,74,0.00,,OVC,0.00,VWS V13.01,2013-01-24 10:13:00,
2013-01-24 04:18:00,-0.4,-6.6,31.90,NW,320,3.1,3.6,74,0.00,,OVC,0.00,VWS V13.01,2013-01-24 10:18:00,
2013-01-24 04:23:00,-0.6,-6.8,31.90,NW,326,0.0,4.0,74,0.00,,OVC,0.00,VWS V13.01,2013-01-24 10:23:00,
2013-01-24 04:28:00,-0.6,-6.8,31.90,NW,305,0.0,2.7,74,0.00,,OVC,0.00,VWS V13.01,2013-01-24 10:28:00,
2013-01-24 04:33:00,-0.6,-6.8,31.93,NNW,339,2.2,3.1,74,0.00,,OVC,0.00,VWS V13.01,2013-01-24 10:33:00,
2013-01-24 04:38:00,-0.6,-6.8,31.93,NNW,331,3.1,3.1,74,0.00,,OVC,0.00,VWS V13.01,2013-01-24 10:38:00,
2013-01-24 04:43:00,-0.6,-6.8,31.93,NW,309,0.0,3.1,74,0.00,,OVC,0.00,VWS V13.01,2013-01-24 10:43:00,
2013-01-24 04:48:00,-0.6,-6.8,31.93,NW,307,0.0,2.7,74,0.00,,OVC,0.00,VWS V13.01,2013-01-24 10:48:00,
2013-01-24 04:53:00,-0.6,-6.8,31.93,WNW,283,2.2,2.2,74,0.00,,OVC,0.00,VWS V13.01,2013-01-24 10:53:00,
2013-01-24 04:58:00,-0.6,-6.8,31.93,West,279,3.6,3.6,74,0.00,,OVC,0.00,VWS V13.01,2013-01-24 10:58:00,
2013-01-24 05:03:00,-0.6,-6.8,31.93,West,272,0.0,4.0,74,0.00,,OVC,0.00,VWS V13.01,2013-01-24 11:03:00,
2013-01-24 05:08:00,-0.6,-6.8,31.93,WNW,284,2.7,4.5,74,0.00,,OVC,0.00,VWS V13.01,2013-01-24 11:08:00,
2013-01-24 05:13:00,-0.6,-6.8,31.93,West,277,0.0,2.7,74,0.00,,OVC,0.00,VWS V13.01,2013-01-24 11:13:00,
2013-01-24 05:18:00,-0.6,-6.8,31.93,WNW,303,6.3,6.3,74,0.00,,OVC,0.00,VWS V13.01,2013-01-24 11:18:00,
2013-01-24 05:23:00,-0.6,-6.8,31.93,WNW,300,2.7,4.0,74,0.00,,OVC,0.00,VWS V13.01,2013-01-24 11:23:00,
2013-01-24 05:28:00,-0.6,-6.8,31.93,NW,307,4.0,6.3,74,0.00,,OVC,0.00,VWS V13.01,2013-01-24 11:28:00,
2013-01-24 05:33:00,-0.6,-6.8,31.93,West,274,2.2,4.0,74,0.00,,OVC,0.00,VWS V13.01,2013-01-24 11:33:00,
2013-01-24 05:38:00,-0.6,-6.8,31.93,WNW,292,4.9,5.8,74,0.00,,OVC,0.00,VWS V13.01,2013-01-24 11:38:00,
2013-01-24 05:43:00,-0.6,-6.8,31.93,NNW,341,2.2,3.1,74,0.00,,OVC,0.00,VWS V13.01,2013-01-24 11:43:00,
2013-01-24 05:48:00,-0.6,-6.8,31.93,NW,323,3.1,3.1,74,0.00,,OVC,0.00,VWS V13.01,2013-01-24 11:48:00,
2013-01-24 05:53:00,-0.6,-6.8,31.93,NNW,330,3.6,3.6,74,0.00,,OVC,0.00,VWS V13.01,2013-01-24 11:53:00,
2013-01-24 05:58:00,-0.6,-6.8,31.93,North,349,2.7,2.7,74,0.00,,OVC,0.00,VWS V13.01,2013-01-24 11:58:00,
2013-01-24 06:03:00,-0.6,-6.8,31.96,NNW,332,3.1,3.1,74,0.00,,OVC,0.00,VWS V13.01,2013-01-24 12:03:00,
2013-01-24 06:08:00,-0.6,-6.8,31.96,WNW,296,0.0,0.0,74,0.00,,OVC,0.00,VWS V13.01,2013-01-24 12:08:00,
2013-01-24 06:13:00,-0.6,-6.8,31.96,North,0,3.6,3.6,74,0.00,,OVC,0.00,VWS V13.01,2013-01-24 12:13:00,
2013-01-24 06:18:00,-0.6,-6.8,31.96,WNW,300,0.0,0.0,74,0.00,,OVC,0.00,VWS V13.01,2013-01-24 12:18:00,
2013-01-24 06:22:00,-0.6,-6.8,31.96,WNW,284,0.0,0.0,74,0.00,,OVC,0.00,VWS V13.01,2013-01-24 12:22:00,
2013-01-24 06:27:00,-0.6,-6.8,31.96,WNW,293,0.0,0.0,74,0.00,,OVC,0.00,VWS V13.01,2013-01-24 12:27:00,
2013-01-24 06:32:00,-0.6,-6.8,31.96,NNW,327,2.2,2.2,74,0.00,,OVC,0.00,VWS V13.01,2013-01-24 12:32:00,
2013-01-24 06:37:00,-0.4,-6.6,31.96,North,353,2.7,3.1,74,0.00,,OVC,0.00,VWS V13.01,2013-01-24 12:37:00,
2013-01-24 06:42:00,-0.4,-6.6,31.96,North,353,4.5,4.9,74,0.00,,OVC,0.00,VWS V13.01,2013-01-24 12:42:00,
2013-01-24 06:47:00,-0.4,-6.6,31.96,NW,322,3.1,3.1,74,0.00,,OVC,0.00,VWS V13.01,2013-01-24 12:47:00,
2013-01-24 06:52:00,-0.4,-6.6,31.96,WNW,283,0.0,4.0,74,0.00,,OVC,0.00,VWS V13.01,2013-01-24 12:52:00,
2013-01-24 06:57:00,-0.4,-6.6,31.96,NNW,346,2.2,3.1,74,0.00,,OVC,0.00,VWS V13.01,2013-01-24 12:57:00,
2013-01-24 07:02:00,-0.4,-6.6,31.96,North,0,2.7,3.1,74,0.00,,OVC,0.00,VWS V13.01,2013-01-24 13:02:00,
2013-01-24 07:07:00,-0.4,-6.6,31.96,North,0,3.1,5.4,74,0.00,,OVC,0.00,VWS V13.01,2013-01-24 13:07:00,
2013-01-24 07:12:00,-0.4,-6.6,31.96,North,357,3.6,5.4,74,0.00,,OVC,0.00,VWS V13.01,2013-01-24 13:12:00,
2013-01-24 07:17:00,-0.4,-6.6,31.96,North,357,0.0,2.2,74,0.00,,OVC,0.00,VWS V13.01,2013-01-24 13:17:00,
2013-01-24 07:22:00,-0.4,-6.6,31.96,North,6,3.1,3.6,74,0.00,,OVC,0.00,VWS V13.01,2013-01-24 13:22:00,
2013-01-24 07:27:00,-0.4,-6.6,31.96,NNW,341,0.0,2.2,74,0.00,,OVC,0.00,VWS V13.01,2013-01-24 13:27:00,
2013-01-24 07:32:00,-0.4,-6.6,31.96,North,353,2.7,2.7,74,0.00,,OVC,0.00,VWS V13.01,2013-01-24 13:32:00,
2013-01-24 07:37:00,-0.2,-6.4,31.96,NNW,329,3.1,3.1,74,0.00,,OVC,0.00,VWS V13.01,2013-01-24 13:37:00,
2013-01-24 07:42:00,-0.2,-6.4,31.96,North,357,5.4,5.8,74,0.00,,OVC,0.00,VWS V13.01,2013-01-24 13:42:00,
2013-01-24 07:47:00,0.0,-6.2,31.96,North,8,5.4,5.4,74,0.00,,OVC,0.00,VWS V13.01,2013-01-24 13:47:00,
2013-01-24 07:52:00,0.0,-6.2,31.96,North,1,4.0,4.0,74,0.00,,OVC,0.00,VWS V13.01,2013-01-24 13:52:00,
2013-01-24 07:57:00,0.1,-6.1,31.96,North,357,3.1,3.6,74,0.00,,OVC,0.00,VWS V13.01,2013-01-24 13:57:00,
2013-01-24 08:02:00,0.3,-5.9,31.99,North,353,4.0,4.0,74,0.00,,OVC,0.00,VWS V13.01,2013-01-24 14:02:00,
2013-01-24 08:07:00,0.3,-5.9,31.99,North,1,3.6,3.6,74,0.00,,OVC,0.00,VWS V13.01,2013-01-24 14:07:00,
2013-01-24 08:12:00,0.7,-5.6,31.99,North,9,3.6,4.0,74,0.00,,OVC,0.00,VWS V13.01,2013-01-24 14:12:00,
2013-01-24 08:17:00,0.7,-5.6,31.99,NNE,20,0.0,3.1,74,0.00,,OVC,0.00,VWS V13.01,2013-01-24 14:17:00,
2013-01-24 08:22:00,0.9,-5.4,31.99,North,353,4.9,5.8,74,0.00,,OVC,0.00,VWS V13.01,2013-01-24 14:22:00,
2013-01-24 08:27:00,1.0,-5.2,31.99,NNW,346,0.0,4.0,74,0.00,,OVC,0.00,VWS V13.01,2013-01-24 14:27:00,
2013-01-24 08:32:00,1.2,-5.0,31.99,NE,41,3.1,3.6,74,0.00,,OVC,0.00,VWS V13.01,2013-01-24 14:32:00,
2013-01-24 08:37:00,1.4,-4.8,31.99,NNE,16,3.6,4.0,74,0.00,,OVC,0.00,VWS V13.01,2013-01-24 14:37:00,
2013-01-24 08:42:00,1.6,-4.7,31.99,North,353,5.4,5.4,74,0.00,,OVC,0.00,VWS V13.01,2013-01-24 14:42:00,
2013-01-24 08:47:00,1.8,-4.5,31.99,NE,34,4.0,5.8,74,0.00,,OVC,0.00,VWS V13.01,2013-01-24 14:47:00,
2013-01-24 08:52:00,1.9,-4.3,31.99,NNE,33,6.3,6.3,74,0.00,,OVC,0.00,VWS V13.01,2013-01-24 14:52:00,
2013-01-24 08:57:00,2.1,-4.2,31.99,North,357,4.9,4.9,74,0.00,,OVC,0.00,VWS V13.01,2013-01-24 14:57:00,
2013-01-24 09:02:00,2.1,-4.2,31.99,NE,53,6.3,6.3,74,0.00,,OVC,0.00,VWS V13.01,2013-01-24 15:02:00,
2013-01-24 09:07:00,2.5,-3.8,31.99,North,357,6.7,6.7,74,0.00,,OVC,0.00,VWS V13.01,2013-01-24 15:07:00,
2013-01-24 09:12:00,2.7,-3.6,31.99,North,1,4.9,5.8,74,0.00,,OVC,0.00,VWS V13.01,2013-01-24 15:12:00,
2013-01-24 09:17:00,2.7,-3.6,31.99,NE,50,3.1,3.1,74,0.00,,OVC,0.00,VWS V13.01,2013-01-24 15:17:00,
2013-01-24 09:22:00,2.8,-3.5,31.99,NNE,24,4.0,4.9,74,0.00,,OVC,0.00,VWS V13.01,2013-01-24 15:22:00,
2013-01-24 09:27:00,3.0,-3.3,31.99,North,9,6.3,6.3,74,0.00,,OVC,0.00,VWS V13.01,2013-01-24 15:27:00,
2013-01-24 09:32:00,3.2,-3.1,31.99,NNE,26,2.7,3.1,74,0.00,,OVC,0.00,VWS V13.01,2013-01-24 15:32:00,
2013-01-24 09:37:00,3.2,-3.1,31.99,North,10,6.3,6.3,74,0.00,,OVC,0.00,VWS V13.01,2013-01-24 15:37:00,
2013-01-24 09:42:00,3.2,-3.1,31.99,North,353,4.9,4.9,74,0.00,,OVC,0.00,VWS V13.01,2013-01-24 15:42:00,
2013-01-24 09:47:00,3.6,-2.8,31.99,ESE,112,4.0,4.0,74,0.00,,OVC,0.00,VWS V13.01,2013-01-24 15:47:00,
2013-01-24 09:52:00,3.7,-2.6,31.99,North,0,5.8,5.8,74,0.00,,OVC,0.00,VWS V13.01,2013-01-24 15:52:00,
2013-01-24 09:57:00,3.7,-2.6,31.99,NE,41,3.6,3.6,74,0.00,,OVC,0.00,VWS V13.01,2013-01-24 15:57:00,
2013-01-24 10:02:00,4.1,-2.2,31.99,North,9,5.8,6.3,74,0.00,,OVC,0.00,VWS V13.01,2013-01-24 16:02:00,
2013-01-24 10:07:00,4.1,-2.2,31.99,NNE,20,4.0,4.0,74,0.00,,OVC,0.00,VWS V13.01,2013-01-24 16:07:00,
2013-01-24 10:12:00,4.5,-1.9,31.99,NNE,22,0.0,5.8,74,0.00,,OVC,0.00,VWS V13.01,2013-01-24 16:12:00,
2013-01-24 10:17:00,4.5,-1.9,31.96,NE,52,2.7,3.6,74,0.00,,OVC,0.00,VWS V13.01,2013-01-24 16:17:00,
2013-01-24 10:22:00,4.8,-1.5,31.96,NNE,17,2.7,4.0,74,0.00,,OVC,0.00,VWS V13.01,2013-01-24 16:22:00,
2013-01-24 10:27:00,5.0,-1.4,31.96,NE,49,4.0,5.8,74,0.00,,OVC,0.00,VWS V13.01,2013-01-24 16:27:00,
2013-01-24 10:32:00,5.4,-1.0,31.99,NE,52,3.6,6.3,74,0.00,,OVC,0.00,VWS V13.01,2013-01-24 16:32:00,
2013-01-24 10:37:00,5.4,-1.0,31.99,NE,35,2.2,3.6,74,0.00,,OVC,0.00,VWS V13.01,2013-01-24 16:37:00,
2013-01-24 10:42:00,5.5,-0.8,31.99,NNE,12,2.7,3.6,74,0.00,,OVC,0.00,VWS V13.01,2013-01-24 16:42:00,
2013-01-24 10:47:00,5.5,-0.8,31.99,NNE,31,2.7,2.7,74,0.00,,OVC,0.00,VWS V13.01,2013-01-24 16:47:00,
2013-01-24 10:52:00,5.5,-0.8,31.99,NE,56,2.7,3.1,74,0.00,,OVC,0.00,VWS V13.01,2013-01-24 16:52:00,
2013-01-24 10:57:00,5.7,-0.7,31.99,NE,48,3.1,3.1,74,0.00,,OVC,0.00,VWS V13.01,2013-01-24 16:57:00,
2013-01-24 11:02:00,5.5,-0.8,31.99,North,9,0.0,0.0,74,0.00,,OVC,0.00,VWS V13.01,2013-01-24 17:02:00,
2013-01-24 11:07:00,6.1,-0.3,31.99,North,10,0.0,0.0,74,0.00,,OVC,0.00,VWS V13.01,2013-01-24 17:07:00,
2013-01-24 11:12:00,6.4,0.0,31.99,NE,52,0.0,3.6,74,0.00,,OVC,0.00,VWS V13.01,2013-01-24 17:12:00,
2013-01-24 11:17:00,6.3,-0.1,31.99,NE,52,2.2,2.2,74,0.00,,OVC,0.00,VWS V13.01,2013-01-24 17:17:00,
2013-01-24 11:22:00,6.4,0.0,31.99,NE,51,3.6,3.6,74,0.00,,OVC,0.00,VWS V13.01,2013-01-24 17:22:00,
2013-01-24 11:27:00,6.8,0.4,31.99,NE,54,4.5,4.5,74,0.00,,OVC,0.00,VWS V13.01,2013-01-24 17:27:00,
2013-01-24 11:32:00,7.0,0.6,31.96,NE,53,4.0,4.9,74,0.00,,OVC,0.00,VWS V13.01,2013-01-24 17:32:00,
2013-01-24 11:37:00,7.2,0.7,31.96,NE,43,3.6,5.4,74,0.00,,OVC,0.00,VWS V13.01,2013-01-24 17:37:00,
2013-01-24 11:42:00,7.2,0.7,31.96,NNE,17,4.0,4.9,74,0.00,,OVC,0.00,VWS V13.01,2013-01-24 17:42:00,
2013-01-24 11:47:00,7.2,0.7,31.96,NE,35,0.0,3.6,74,0.00,,OVC,0.00,VWS V13.01,2013-01-24 17:47:00,
2013-01-24 11:52:00,7.2,0.7,31.96,NE,42,0.0,0.0,74,0.00,,OVC,0.00,VWS V13.01,2013-01-24 17:52:00,
2013-01-24 11:57:00,7.2,0.7,31.96,NE,49,3.6,4.9,74,0.00,,OVC,0.00,VWS V13.01,2013-01-24 17:57:00,
2013-01-24 12:02:00,7.2,0.7,31.93,ENE,62,4.0,4.0,74,0.00,,OVC,0.00,VWS V13.01,2013-01-24 18:02:00,
2013-01-24 12:07:00,7.5,1.1,31.93,North,357,3.1,4.0,74,0.00,,OVC,0.00,VWS V13.01,2013-01-24 18:07:00,
2013-01-24 12:12:00,7.7,1.3,31.93,NNE,26,3.1,5.8,74,0.00,,OVC,0.00,VWS V13.01,2013-01-24 18:12:00,
2013-01-24 12:17:00,7.9,1.4,31.96,NNE,28,0.0,2.2,74,0.00,,OVC,0.00,VWS V13.01,2013-01-24 18:17:00,
2013-01-24 12:22:00,8.2,1.8,31.96,NNE,26,3.6,4.0,74,0.00,,OVC,0.00,VWS V13.01,2013-01-24 18:22:00,
2013-01-24 12:27:00,8.2,1.8,31.96,NNE,27,2.2,2.2,74,0.00,,OVC,0.00,VWS V13.01,2013-01-24 18:27:00,
2013-01-24 12:32:00,8.2,1.8,31.93,NE,54,0.0,2.2,74,0.00,,OVC,0.00,VWS V13.01,2013-01-24 18:32:00,
2013-01-24 12:37:00,8.4,2.0,31.93,NE,54,0.0,0.0,74,0.00,,OVC,0.00,VWS V13.01,2013-01-24 18:37:00,
2013-01-24 12:42:00,8.4,2.0,31.93,NNE,23,2.2,3.1,74,0.00,,OVC,0.00,VWS V13.01,2013-01-24 18:42:00,
2013-01-24 12:47:00,8.4,2.0,31.93,North,350,0.0,2.7,74,0.00,,OVC,0.00,VWS V13.01,2013-01-24 18:47:00,
2013-01-24 12:52:00,8.4,2.0,31.93,NE,38,0.0,4.0,74,0.00,,OVC,0.00,VWS V13.01,2013-01-24 18:52:00,
2013-01-24 12:57:00,8.6,2.1,31.93,NNE,26,0.0,4.0,74,0.00,,OVC,0.00,VWS V13.01,2013-01-24 18:57:00,
2013-01-24 13:02:00,9.0,2.5,31.93,NNE,25,0.0,2.2,74,0.00,,OVC,0.00,VWS V13.01,2013-01-24 19:02:00,
2013-01-24 13:07:00,9.0,2.5,31.93,NNE,25,0.0,0.0,74,0.00,,OVC,0.00,VWS V13.01,2013-01-24 19:07:00,
2013-01-24 13:12:00,9.1,2.7,31.93,NNE,25,0.0,0.0,74,0.00,,OVC,0.00,VWS V13.01,2013-01-24 19:12:00,
2013-01-24 13:17:00,9.1,2.7,31.93,North,357,2.7,4.0,74,0.00,,OVC,0.00,VWS V13.01,2013-01-24 19:17:00,
2013-01-24 13:22:00,9.3,2.8,31.93,North,357,0.0,0.0,74,0.00,,OVC,0.00,VWS V13.01,2013-01-24 19:22:00,
2013-01-24 13:27:00,9.5,3.0,31.93,North,357,0.0,2.2,74,0.00,,OVC,0.00,VWS V13.01,2013-01-24 19:27:00,
2013-01-24 13:32:00,9.7,3.2,31.90,North,357,0.0,0.0,74,0.00,,OVC,0.00,VWS V13.01,2013-01-24 19:32:00,
2013-01-24 13:37:00,9.9,3.3,31.90,North,357,0.0,0.0,74,0.00,,OVC,0.00,VWS V13.01,2013-01-24 19:37:00,
2013-01-24 13:42:00,10.0,3.5,31.90,North,357,0.0,0.0,74,0.00,,OVC,0.00,VWS V13.01,2013-01-24 19:42:00,
2013-01-24 13:47:00,10.0,3.5,31.90,North,357,0.0,2.2,74,0.00,,OVC,0.00,VWS V13.01,2013-01-24 19:47:00,
2013-01-24 13:52:00,10.2,3.7,31.90,North,357,2.7,3.1,74,0.00,,OVC,0.00,VWS V13.01,2013-01-24 19:52:00,
2013-01-24 13:57:00,10.2,3.7,31.90,North,357,0.0,2.7,74,0.00,,OVC,0.00,VWS V13.01,2013-01-24 19:57:00,
2013-01-24 14:02:00,10.4,3.9,31.90,North,357,3.1,3.1,74,0.00,,OVC,0.00,VWS V13.01,2013-01-24 20:02:00,
2013-01-24 14:07:00,10.6,4.1,31.90,North,357,2.7,2.7,74,0.00,,OVC,0.00,VWS V13.01,2013-01-24 20:07:00,
2013-01-24 14:12:00,10.8,4.2,31.90,NNE,19,4.0,4.0,74,0.00,,OVC,0.00,VWS V13.01,2013-01-24 20:12:00,
2013-01-24 14:17:00,10.6,4.1,31.90,North,357,3.1,3.6,74,0.00,,OVC,0.00,VWS V13.01,2013-01-24 20:17:00,
2013-01-24 14:22:00,10.8,4.2,31.90,North,10,3.1,3.6,74,0.00,,OVC,0.00,VWS V13.01,2013-01-24 20:22:00,
2013-01-24 14:27:00,10.9,4.4,31.90,NNE,33,3.1,3.1,74,0.00,,OVC,0.00,VWS V13.01,2013-01-24 20:27:00,
2013-01-24 14:32:00,11.1,4.6,31.87,NNE,33,2.7,3.1,74,0.00,,OVC,0.00,VWS V13.01,2013-01-24 20:32:00,
2013-01-24 14:37:00,10.9,4.4,31.87,NE,34,2.7,2.7,74,0.00,,OVC,0.00,VWS V13.01,2013-01-24 20:37:00,
2013-01-24 14:42:00,11.1,4.6,31.87,NE,34,0.0,0.0,74,0.00,,OVC,0.00,VWS V13.01,2013-01-24 20:42:00,
2013-01-24 14:47:00,11.1,4.6,31.87,NNE,33,3.6,3.6,74,0.00,,OVC,0.00,VWS V13.01,2013-01-24 20:47:00,
2013-01-24 14:52:00,11.1,4.6,31.87,NNE,33,0.0,3.1,74,0.00,,OVC,0.00,VWS V13.01,2013-01-24 20:52:00,
2013-01-24 14:57:00,11.1,4.6,31.87,NNE,33,3.1,4.0,74,0.00,,OVC,0.00,VWS V13.01,2013-01-24 20:57:00,
2013-01-24 15:02:00,11.3,4.7,31.90,NNE,33,4.0,4.0,74,0.00,,OVC,0.00,VWS V13.01,2013-01-24 21:02:00,
2013-01-24 15:07:00,11.3,4.7,31.90,NNE,33,2.7,3.1,74,0.00,,OVC,0.00,VWS V13.01,2013-01-24 21:07:00,
2013-01-24 15:12:00,11.3,4.7,31.90,NNE,33,2.7,2.7,74,0.00,,OVC,0.00,VWS V13.01,2013-01-24 21:12:00,
2013-01-24 15:17:00,11.3,4.7,31.87,NE,34,3.1,3.1,74,0.00,,OVC,0.00,VWS V13.01,2013-01-24 21:17:00,
2013-01-24 15:22:00,11.3,4.7,31.87,NNE,33,2.2,2.2,74,0.00,,OVC,0.00,VWS V13.01,2013-01-24 21:22:00,
2013-01-24 15:27:00,11.3,4.7,31.87,NNE,33,4.0,4.0,74,0.00,,OVC,0.00,VWS V13.01,2013-01-24 21:27:00,
2013-01-24 15:32:00,11.3,4.7,31.87,NE,34,0.0,3.1,74,0.00,,OVC,0.00,VWS V13.01,2013-01-24 21:32:00,
2013-01-24 15:37:00,11.3,4.7,31.87,NE,34,2.2,3.1,74,0.00,,OVC,0.00,VWS V13.01,2013-01-24 21:37:00,
2013-01-24 15:42:00,11.1,4.6,31.87,NE,34,2.2,2.2,74,0.00,,OVC,0.00,VWS V13.01,2013-01-24 21:42:00,
2013-01-24 15:47:00,11.1,4.6,31.87,NE,34,0.0,4.0,74,0.00,,OVC,0.00,VWS V13.01,2013-01-24 21:47:00,
2013-01-24 15:52:00,10.9,4.4,31.87,NE,34,0.0,0.0,74,0.00,,OVC,0.00,VWS V13.01,2013-01-24 21:52:00,
2013-01-24 15:57:00,10.9,4.4,31.87,NE,34,0.0,2.7,74,0.00,,OVC,0.00,VWS V13.01,2013-01-24 21:57:00,
2013-01-24 16:02:00,11.1,4.6,31.87,NE,34,2.7,3.6,74,0.00,,OVC,0.00,VWS V13.01,2013-01-24 22:02:00,
2013-01-24 16:07:00,11.1,4.6,31.87,NE,34,0.0,0.0,74,0.00,,OVC,0.00,VWS V13.01,2013-01-24 22:07:00,
2013-01-24 16:12:00,11.1,4.6,31.87,NE,36,0.0,3.6,74,0.00,,OVC,0.00,VWS V13.01,2013-01-24 22:12:00,
2013-01-24 16:17:00,11.1,4.6,31.84,NE,36,0.0,0.0,74,0.00,,OVC,0.00,VWS V13.01,2013-01-24 22:17:00,
2013-01-24 16:22:00,11.1,4.6,31.84,NE,36,0.0,0.0,74,0.00,,OVC,0.00,VWS V13.01,2013-01-24 22:22:00,
2013-01-24 16:27:00,11.1,4.6,31.84,NE,36,3.1,3.1,74,0.00,,OVC,0.00,VWS V13.01,2013-01-24 22:27:00,
2013-01-24 16:32:00,11.3,4.7,31.84,NE,36,0.0,0.0,74,0.00,,OVC,0.00,VWS V13.01,2013-01-24 22:32:00,
2013-01-24 16:37:00,11.3,4.7,31.84,NE,36,0.0,0.0,74,0.00,,OVC,0.00,VWS V13.01,2013-01-24 22:37:00,
2013-01-24 16:42:00,11.3,4.7,31.84,NE,36,0.0,0.0,74,0.00,,OVC,0.00,VWS V13.01,2013-01-24 22:42:00,
2013-01-24 16:47:00,11.3,4.7,31.84,NE,36,0.0,2.7,74,0.00,,OVC,0.00,VWS V13.01,2013-01-24 22:47:00,
2013-01-24 16:52:00,11.5,4.9,31.84,NE,36,0.0,0.0,74,0.00,,OVC,0.00,VWS V13.01,2013-01-24 22:52:00,
2013-01-24 16:57:00,11.5,4.9,31.84,NE,36,2.7,3.6,74,0.00,,OVC,0.00,VWS V13.01,2013-01-24 22:57:00,
2013-01-24 17:02:00,11.5,4.9,31.84,NE,36,0.0,0.0,74,0.00,,OVC,0.00,VWS V13.01,2013-01-24 23:02:00,
2013-01-24 17:07:00,11.5,4.9,31.84,NE,37,0.0,0.0,74,0.00,,OVC,0.00,VWS V13.01,2013-01-24 23:07:00,
2013-01-24 17:11:00,11.7,5.1,31.84,NE,36,2.7,2.7,74,0.00,,OVC,0.00,VWS V13.01,2013-01-24 23:11:00,
2013-01-24 17:16:00,11.7,5.1,31.84,NE,36,0.0,0.0,74,0.00,,OVC,0.00,VWS V13.01,2013-01-24 23:16:00,
2013-01-24 17:21:00,11.7,5.1,31.84,NE,36,3.1,3.1,74,0.00,,OVC,0.00,VWS V13.01,2013-01-24 23:21:00,
2013-01-24 17:26:00,11.8,5.3,31.84,NE,36,2.2,2.2,74,0.00,,OVC,0.00,VWS V13.01,2013-01-24 23:26:00,
2013-01-24 17:31:00,11.8,5.3,31.84,NE,36,2.2,2.7,74,0.00,,OVC,0.00,VWS V13.01,2013-01-24 23:31:00,
2013-01-24 17:36:00,11.8,5.3,31.84,NE,36,2.7,2.7,74,0.00,,OVC,0.00,VWS V13.01,2013-01-24 23:36:00,
2013-01-24 17:41:00,11.8,5.3,31.84,East,90,0.0,2.7,74,0.00,,OVC,0.00,VWS V13.01,2013-01-24 23:41:00,
2013-01-24 17:46:00,11.8,5.3,31.81,East,90,2.7,2.7,74,0.00,,OVC,0.00,VWS V13.01,2013-01-24 23:46:00,
2013-01-24 17:51:00,11.8,5.3,31.81,SE,126,3.1,3.1,74,0.00,,OVC,0.00,VWS V13.01,2013-01-24 23:51:00,
2013-01-24 17:56:00,11.7,5.1,31.81,ENE,57,2.7,3.1,74,0.00,,OVC,0.00,VWS V13.01,2013-01-24 23:56:00,
2013-01-24 18:01:00,11.7,5.1,31.81,ESE,121,3.1,3.6,74,0.00,,OVC,0.00,VWS V13.01,2013-01-25 00:01:00,
2013-01-24 18:06:00,11.7,5.1,31.81,NE,41,0.0,0.0,74,0.00,,OVC,0.00,VWS V13.01,2013-01-25 00:06:00,
2013-01-24 18:11:00,11.7,5.1,31.81,SE,127,4.0,4.0,74,0.00,,OVC,0.00,VWS V13.01,2013-01-25 00:11:00,
2013-01-24 18:16:00,11.7,5.1,31.78,ENE,76,2.7,2.7,74,0.00,,OVC,0.00,VWS V13.01,2013-01-25 00:16:00,
2013-01-24 18:21:00,11.5,4.9,31.78,ENE,70,4.0,4.0,74,0.00,,OVC,0.00,VWS V13.01,2013-01-25 00:21:00,
2013-01-24 18:26:00,11.5,4.9,31.78,East,84,4.0,4.0,74,0.00,,OVC,0.00,VWS V13.01,2013-01-25 00:26:00,
2013-01-24 18:31:00,11.5,4.9,31.78,East,98,3.1,3.1,74,0.00,,OVC,0.00,VWS V13.01,2013-01-25 00:31:00,
2013-01-24 18:36:00,11.5,4.9,31.78,SE,132,0.0,4.0,74,0.00,,OVC,0.00,VWS V13.01,2013-01-25 00:36:00,
2013-01-24 18:41:00,11.5,4.9,31.78,ESE,117,0.0,3.1,74,0.00,,OVC,0.00,VWS V13.01,2013-01-25 00:41:00,
2013-01-24 18:46:00,11.7,5.1,31.78,SE,142,2.7,3.1,74,0.00,,OVC,0.00,VWS V13.01,2013-01-25 00:46:00,
2013-01-24 18:51:00,11.7,5.1,31.78,ENE,59,3.1,3.1,74,0.00,,OVC,0.00,VWS V13.01,2013-01-25 00:51:00,
2013-01-24 18:56:00,11.7,5.1,31.78,ESE,119,2.7,2.7,74,0.00,,OVC,0.00,VWS V13.01,2013-01-25 00:56:00,
2013-01-24 19:01:00,11.7,5.1,31.78,ESE,119,4.9,5.8,74,0.00,,OVC,0.00,VWS V13.01,2013-01-25 01:01:00,
2013-01-24 19:06:00,11.8,5.3,31.78,ESE,113,2.7,2.7,74,0.00,,OVC,0.00,VWS V13.01,2013-01-25 01:06:00,
2013-01-24 19:11:00,11.8,5.3,31.78,SE,135,3.1,3.1,74,0.00,,OVC,0.00,VWS V13.01,2013-01-25 01:11:00,
2013-01-24 19:16:00,11.8,5.3,31.78,NE,48,0.0,2.2,74,0.00,,OVC,0.00,VWS V13.01,2013-01-25 01:16:00,
2013-01-24 19:21:00,12.0,5.4,31.78,ENE,68,2.2,2.7,74,0.00,,OVC,0.00,VWS V13.01,2013-01-25 01:21:00,
2013-01-24 19:26:00,12.0,5.4,31.78,ENE,68,0.0,0.0,74,0.00,,OVC,0.00,VWS V13.01,2013-01-25 01:26:00,
2013-01-24 19:31:00,12.0,5.4,31.78,ENE,68,0.0,0.0,74,0.00,,OVC,0.00,VWS V13.01,2013-01-25 01:31:00,
2013-01-24 19:36:00,12.0,5.4,31.78,ENE,68,0.0,0.0,74,0.00,,OVC,0.00,VWS V13.01,2013-01-25 01:36:00,
2013-01-24 19:41:00,12.2,5.6,31.78,ESE,112,3.1,3.6,74,0.00,,OVC,0.00,VWS V13.01,2013-01-25 01:41:00,
2013-01-24 19:46:00,12.2,5.6,31.78,SE,126,0.0,0.0,74,0.00,,OVC,0.00,VWS V13.01,2013-01-25 01:46:00,
2013-01-24 19:51:00,12.2,5.6,31.78,SE,126,2.2,3.1,74,0.00,,OVC,0.00,VWS V13.01,2013-01-25 01:51:00,
2013-01-24 19:56:00,12.2,5.6,31.78,ENE,63,2.2,2.7,74,0.00,,OVC,0.00,VWS V13.01,2013-01-25 01:56:00,
2013-01-24 20:01:00,12.4,5.8,31.78,ENE,63,0.0,2.7,74,0.00,,OVC,0.00,VWS V13.01,2013-01-25 02:01:00,
2013-01-24 20:06:00,12.4,5.8,31.78,ESE,122,2.2,2.7,74,0.00,,OVC,0.00,VWS V13.01,2013-01-25 02:06:00,
2013-01-24 20:11:00,12.4,5.8,31.78,ESE,112,0.0,2.7,74,0.00,,OVC,0.00,VWS V13.01,2013-01-25 02:11:00,
2013-01-24 20:16:00,12.6,6.0,31.75,ENE,68,2.2,2.7,74,0.00,,OVC,0.00,VWS V13.01,2013-01-25 02:16:00,
2013-01-24 20:21:00,12.6,6.0,31.75,ENE,69,0.0,0.0,74,0.00,,OVC,0.00,VWS V13.01,2013-01-25 02:21:00,
2013-01-24 20:26:00,12.6,6.0,31.75,East,84,3.1,3.1,74,0.00,,OVC,0.00,VWS V13.01,2013-01-25 02:26:00,
2013-01-24 20:31:00,12.7,6.1,31.75,SE,125,3.6,4.0,74,0.00,,OVC,0.00,VWS V13.01,2013-01-25 02:31:00,
2013-01-24 20:36:00,12.7,6.1,31.75,East,87,0.0,2.2,74,0.00,,OVC,0.00,VWS V13.01,2013-01-25 02:36:00,
2013-01-24 20:41:00,12.7,6.1,31.75,NE,56,2.7,3.6,74,0.00,,OVC,0.00,VWS V13.01,2013-01-25 02:41:00,
2013-01-24 20:46:00,12.7,6.1,31.75,NE,53,2.2,3.1,74,0.00,,OVC,0.00,VWS V13.01,2013-01-25 02:46:00,
2013-01-24 20:51:00,12.9,6.3,31.75,ESE,122,3.6,4.0,74,0.00,,OVC,0.00,VWS V13.01,2013-01-25 02:51:00,
2013-01-24 20:56:00,12.9,6.3,31.75,ESE,123,2.7,3.1,74,0.00,,OVC,0.00,VWS V13.01,2013-01-25 02:56:00,
2013-01-24 21:01:00,12.9,6.3,31.75,ESE,122,0.0,0.0,74,0.00,,OVC,0.00,VWS V13.01,2013-01-25 03:01:00,
2013-01-24 21:06:00,12.9,6.3,31.75,ESE,122,0.0,2.2,74,0.00,,OVC,0.00,VWS V13.01,2013-01-25 03:06:00,
2013-01-24 21:11:00,13.1,6.5,31.75,ENE,71,0.0,2.7,74,0.00,,OVC,0.00,VWS V13.01,2013-01-25 03:11:00,
2013-01-24 21:16:00,13.1,6.5,31.72,East,101,2.2,3.1,74,0.00,,OVC,0.00,VWS V13.01,2013-01-25 03:16:00,
2013-01-24 21:21:00,13.3,6.7,31.72,ESE,112,3.1,3.1,74,0.00,,OVC,0.00,VWS V13.01,2013-01-25 03:21:00,
2013-01-24 21:26:00,13.3,6.7,31.72,ESE,120,3.6,4.0,74,0.00,,OVC,0.00,VWS V13.01,2013-01-25 03:26:00,
2013-01-24 21:31:00,13.3,6.7,31.69,ESE,123,5.8,5.8,74,0.00,,OVC,0.00,VWS V13.01,2013-01-25 03:31:00,
2013-01-24 21:36:00,13.3,6.7,31.69,SE,129,3.1,4.0,74,0.00,,OVC,0.00,VWS V13.01,2013-01-25 03:36:00,
2013-01-24 21:41:00,13.3,6.7,31.69,SE,130,3.6,5.4,74,0.00,,OVC,0.00,VWS V13.01,2013-01-25 03:41:00,
2013-01-24 21:46:00,13.5,6.8,31.69,East,83,2.7,3.6,74,0.00,,OVC,0.00,VWS V13.01,2013-01-25 03:46:00,
2013-01-24 21:51:00,13.5,6.8,31.69,ESE,123,3.1,3.1,74,0.00,,OVC,0.00,VWS V13.01,2013-01-25 03:51:00,
2013-01-24 21:56:00,13.6,7.0,31.69,East,83,2.7,3.1,74,0.00,,OVC,0.00,VWS V13.01,2013-01-25 03:56:00,
2013-01-24 22:01:00,13.6,7.0,31.69,ENE,75,3.1,3.6,74,0.00,,OVC,0.00,VWS V13.01,2013-01-25 04:01:00,
2013-01-24 22:06:00,13.6,7.0,31.69,SE,139,5.8,5.8,74,0.00,,OVC,0.00,VWS V13.01,2013-01-25 04:06:00,
2013-01-24 22:11:00,13.6,7.0,31.69,SE,146,2.7,2.7,74,0.00,,OVC,0.00,VWS V13.01,2013-01-25 04:11:00,
2013-01-24 22:16:00,13.8,7.2,31.69,ESE,115,4.9,5.8,74,0.00,,OVC,0.00,VWS V13.01,2013-01-25 04:16:00,
2013-01-24 22:21:00,13.8,7.2,31.69,East,94,0.0,0.0,74,0.00,,OVC,0.00,VWS V13.01,2013-01-25 04:21:00,
2013-01-24 22:26:00,14.0,7.4,31.69,ESE,116,2.2,3.6,74,0.00,,OVC,0.00,VWS V13.01,2013-01-25 04:26:00,
2013-01-24 22:31:00,14.0,7.4,31.69,ESE,107,0.0,0.0,74,0.00,,OVC,0.00,VWS V13.01,2013-01-25 04:31:00,
2013-01-24 22:36:00,14.2,7.1,31.69,ESE,107,0.0,3.1,73,0.00,,OVC,0.00,VWS V13.01,2013-01-25 04:36:00,
2013-01-24 22:41:00,14.2,7.1,31.69,ESE,110,0.0,0.0,73,0.00,,OVC,0.00,VWS V13.01,2013-01-25 04:41:00,
2013-01-24 22:46:00,14.4,7.3,31.69,SE,135,0.0,0.0,73,0.00,,OVC,0.00,VWS V13.01,2013-01-25 04:46:00,
2013-01-24 22:51:00,14.4,7.3,31.69,East,100,0.0,2.7,73,0.00,,OVC,0.00,VWS V13.01,2013-01-25 04:51:00,
2013-01-24 22:56:00,14.5,7.4,31.69,ENE,57,0.0,0.0,73,0.00,,OVC,0.00,VWS V13.01,2013-01-25 04:56:00,
2013-01-24 23:00:00,14.5,7.4,31.69,ENE,57,2.2,2.7,73,0.00,,OVC,0.00,VWS V13.01,2013-01-25 05:00:00,
2013-01-24 23:01:00,14.7,7.6,31.69,ENE,57,0.0,3.1,73,0.00,,OVC,0.00,VWS V13.01,2013-01-25 05:01:00,
2013-01-24 23:02:00,14.7,7.6,31.69,NE,56,0.0,0.0,73,0.00,,OVC,0.00,VWS V13.01,2013-01-25 05:02:00,
2013-01-24 23:07:00,14.9,7.8,31.69,East,98,0.0,0.0,73,0.00,,OVC,0.00,VWS V13.01,2013-01-25 05:07:00,
2013-01-24 23:12:00,14.9,7.8,31.69,East,98,0.0,0.0,73,0.00,,OVC,0.00,VWS V13.01,2013-01-25 05:12:00,
2013-01-24 23:17:00,14.9,7.8,31.69,East,98,0.0,0.0,73,0.00,,OVC,0.00,VWS V13.01,2013-01-25 05:17:00,
2013-01-24 23:22:00,15.1,8.0,31.69,East,83,2.7,2.7,73,0.00,,OVC,0.00,VWS V13.01,2013-01-25 05:22:00,
2013-01-24 23:27:00,15.1,8.0,31.69,ESE,110,2.2,2.2,73,0.00,,OVC,0.00,VWS V13.01,2013-01-25 05:27:00,
2013-01-24 23:32:00,15.3,8.1,31.69,ESE,111,4.0,4.0,73,0.00,,OVC,0.00,VWS V13.01,2013-01-25 05:32:00,
2013-01-24 23:37:00,15.3,8.1,31.69,SE,125,0.0,0.0,73,0.00,,OVC,0.00,VWS V13.01,2013-01-25 05:37:00,
2013-01-24 23:42:00,15.4,8.3,31.69,SE,127,2.7,3.6,73,0.00,,OVC,0.00,VWS V13.01,2013-01-25 05:42:00,
2013-01-24 23:47:00,15.4,8.3,31.66,SE,129,0.0,5.8,73,0.00,,OVC,0.00,VWS V13.01,2013-01-25 05:47:00,
2013-01-24 23:52:00,15.6,8.5,31.66,SE,142,0.0,0.0,73,0.00,,OVC,0.00,VWS V13.01,2013-01-25 05:52:00,
2013-01-24 23:57:00,15.8,8.7,31.66,ESE,122,0.0,3.1,73,0.00,,OVC,0.00,VWS V13.01,2013-01-25 05:57:00,